PWSweather.com
Personal Weather Stations
Station Observations
MADWEATHER
MadeiraPT

MadeiraPT

Lat: 32.735, Lon: -17.194

Elevation: 1063

Station Type: Davis VantagePro2

Latest ConditionsUpdated 10:20:01 AM GMT Thursday, Nov 27, 2014
Currently Today's Max Today's Min Today's Average
Temperature 57.7°F14.3°C 58.6°F14.8°C 54.7°F12.6°C 56.2°F13.4°C
Dew Point 54.8°F12.7°C 54.8°F12.7°C 47.6°F8.7°C 50.6°F10.3°C
Winds 11.5 mph NW18.5 kmh NW 15.3 mph NW24.6 kmh NW - 7.3 mph 11.7 kmh
Wind Gusts 14.0 mph22.5 kmh 24.0 mph38.6 kmh - -
Humidity 90% 90% 73% 81%
Pressure 29.86 in1011.2 mb 29.97 in1014.9 mb 29.86 in1011.2 mb -
Precipitation - 0.06 in1.5 mm - -
Hour Temp Dew Point Humidity Winds Wind Gusts Pressure Precip Precip Rate Daily Precip Total
10:20 AM 57.7°F14.3°C 54.8°F12.7°C 90% 11.5 mph NW18.5 kmh NW 14.0 mph22.5 kmh 29.86 in1011.2 mb 0.01 in0.3 mm 0.06 in/hr1.5 mm/hr 0.06 in1.5 mm
10:10 AM 57.8°F14.3°C 54.3°F12.4°C 88% 9.8 mph NW15.8 kmh NW 12.0 mph19.3 kmh 29.86 in1011.2 mb 0.02 in0.5 mm 0.12 in/hr3.0 mm/hr 0.06 in1.5 mm
10:00 AM 58.4°F14.7°C 54.2°F12.3°C 86% 11.2 mph NW18.0 kmh NW 14.0 mph22.5 kmh 29.86 in1011.2 mb 0.02 in0.5 mm 0.02 in/hr0.5 mm/hr 0.05 in1.3 mm
09:50 AM 58.5°F14.7°C 53.7°F12.1°C 84% 9.5 mph NW15.3 kmh NW 17.0 mph27.4 kmh 29.87 in1011.5 mb 0.00 in0.0 mm 0.00 in/hr0.0 mm/hr 0.02 in0.5 mm
09:40 AM 58.6°F14.8°C 53.8°F12.1°C 84% 8.6 mph WNW13.8 kmh WNW 14.0 mph22.5 kmh 29.87 in1011.5 mb 0.00 in0.0 mm 0.00 in/hr0.0 mm/hr 0.02 in0.5 mm
09:30 AM 58.4°F14.7°C 53.2°F11.8°C 83% 8.3 mph WNW13.4 kmh WNW 14.0 mph22.5 kmh 29.87 in1011.5 mb 0.00 in0.0 mm 0.00 in/hr0.0 mm/hr 0.02 in0.5 mm
09:20 AM 58.2°F14.6°C 53.1°F11.7°C 83% 9.7 mph NW15.6 kmh NW 16.0 mph25.7 kmh 29.86 in1011.2 mb 0.00 in0.0 mm 0.00 in/hr0.0 mm/hr 0.02 in0.5 mm
09:10 AM 58.0°F14.4°C 52.9°F11.6°C 83% 6.9 mph WNW11.1 kmh WNW 11.0 mph17.7 kmh 29.86 in1011.2 mb 0.00 in0.0 mm 0.00 in/hr0.0 mm/hr 0.02 in0.5 mm
09:00 AM 57.8°F14.3°C 52.3°F11.3°C 82% 8.3 mph NW13.4 kmh NW 13.0 mph20.9 kmh 29.86 in1011.2 mb 0.00 in0.0 mm 0.00 in/hr0.0 mm/hr 0.02 in0.5 mm
08:50 AM 57.6°F14.2°C 52.4°F11.3°C 83% 5.9 mph NW9.5 kmh NW 11.0 mph17.7 kmh 29.87 in1011.5 mb 0.00 in0.0 mm 0.00 in/hr0.0 mm/hr 0.02 in0.5 mm
08:40 AM 57.4°F14.1°C 52.6°F11.4°C 84% 7.5 mph NW12.1 kmh NW 11.0 mph17.7 kmh 29.88 in1011.9 mb 0.00 in0.0 mm 0.00 in/hr0.0 mm/hr 0.02 in0.5 mm
08:30 AM 57.5°F14.2°C 52.4°F11.3°C 83% 12.3 mph NW19.8 kmh NW 17.0 mph27.4 kmh 29.88 in1011.9 mb 0.00 in0.0 mm 0.00 in/hr0.0 mm/hr 0.02 in0.5 mm
08:20 AM 57.3°F14.1°C 52.2°F11.2°C 83% 7.2 mph NW11.6 kmh NW 15.0 mph24.1 kmh 29.88 in1011.9 mb 0.00 in0.0 mm 0.00 in/hr0.0 mm/hr 0.02 in0.5 mm
08:10 AM 57.1°F13.9°C 52.0°F11.1°C 83% 8.8 mph NW14.2 kmh NW 10.0 mph16.1 kmh 29.89 in1012.2 mb 0.00 in0.0 mm 0.00 in/hr0.0 mm/hr 0.02 in0.5 mm
08:00 AM 57.1°F13.9°C 51.6°F10.9°C 82% 3.5 mph NW5.6 kmh NW 5.0 mph8.0 kmh 29.89 in1012.2 mb 0.00 in0.0 mm 0.00 in/hr0.0 mm/hr 0.02 in0.5 mm
07:50 AM 57.0°F13.9°C 51.9°F11.1°C 83% 5.0 mph NW8.0 kmh NW 12.0 mph19.3 kmh 29.88 in1011.9 mb 0.00 in0.0 mm 0.00 in/hr0.0 mm/hr 0.02 in0.5 mm
07:40 AM 57.0°F13.9°C 51.9°F11.1°C 83% 9.4 mph WNW15.1 kmh WNW 24.0 mph38.6 kmh 29.89 in1012.2 mb 0.00 in0.0 mm 0.00 in/hr0.0 mm/hr 0.02 in0.5 mm
07:30 AM 56.7°F13.7°C 51.6°F10.9°C 83% 5.9 mph NW9.5 kmh NW 17.0 mph27.4 kmh 29.89 in1012.2 mb 0.00 in0.0 mm 0.00 in/hr0.0 mm/hr 0.02 in0.5 mm
07:20 AM 56.6°F13.7°C 51.5°F10.8°C 83% 5.1 mph NW8.2 kmh NW 10.0 mph16.1 kmh 29.89 in1012.2 mb 0.00 in0.0 mm 0.00 in/hr0.0 mm/hr 0.02 in0.5 mm
07:10 AM 56.7°F13.7°C 51.2°F10.7°C 82% 7.7 mph N12.4 kmh N 14.0 mph22.5 kmh 29.89 in1012.2 mb 0.00 in0.0 mm 0.00 in/hr0.0 mm/hr 0.02 in0.5 mm
07:00 AM 56.7°F13.7°C 50.6°F10.3°C 80% 9.5 mph NW15.3 kmh NW 21.0 mph33.8 kmh 29.89 in1012.2 mb 0.00 in0.0 mm 0.00 in/hr0.0 mm/hr 0.02 in0.5 mm
06:50 AM 56.5°F13.6°C 49.3°F9.6°C 77% 7.4 mph NW11.9 kmh NW 15.0 mph24.1 kmh 29.89 in1012.2 mb 0.00 in0.0 mm 0.00 in/hr0.0 mm/hr 0.02 in0.5 mm
06:40 AM 56.3°F13.5°C 48.1°F8.9°C 74% 2.7 mph NW4.3 kmh NW 5.0 mph8.0 kmh 29.89 in1012.2 mb 0.00 in0.0 mm 0.00 in/hr0.0 mm/hr 0.02 in0.5 mm
06:30 AM 56.3°F13.5°C 47.8°F8.8°C 73% 4.8 mph NW7.7 kmh NW 6.0 mph9.7 kmh 29.89 in1012.2 mb 0.00 in0.0 mm 0.00 in/hr0.0 mm/hr 0.02 in0.5 mm
06:20 AM 56.4°F13.6°C 47.9°F8.8°C 73% 1.7 mph NW2.7 kmh NW 2.0 mph3.2 kmh 29.89 in1012.2 mb 0.00 in0.0 mm 0.00 in/hr0.0 mm/hr 0.02 in0.5 mm
06:10 AM 56.4°F13.6°C 48.2°F9.0°C 74% 6.5 mph NW10.5 kmh NW 12.0 mph19.3 kmh 29.89 in1012.2 mb 0.00 in0.0 mm 0.00 in/hr0.0 mm/hr 0.02 in0.5 mm
06:00 AM 56.4°F13.6°C 48.9°F9.4°C 76% 6.4 mph NW10.3 kmh NW 10.0 mph16.1 kmh 29.89 in1012.2 mb 0.00 in0.0 mm 0.00 in/hr0.0 mm/hr 0.02 in0.5 mm
05:50 AM 56.5°F13.6°C 50.4°F10.2°C 80% 9.0 mph NW14.5 kmh NW 12.0 mph19.3 kmh 29.91 in1012.9 mb 0.00 in0.0 mm 0.00 in/hr0.0 mm/hr 0.02 in0.5 mm
05:40 AM 56.3°F13.5°C 49.9°F9.9°C 79% 12.0 mph NW19.3 kmh NW 22.0 mph35.4 kmh 29.90 in1012.5 mb 0.00 in0.0 mm 0.00 in/hr0.0 mm/hr 0.02 in0.5 mm
05:30 AM 55.8°F13.2°C 48.4°F9.1°C 76% 7.0 mph NW11.3 kmh NW 21.0 mph33.8 kmh 29.90 in1012.5 mb 0.00 in0.0 mm 0.00 in/hr0.0 mm/hr 0.02 in0.5 mm
05:20 AM 55.8°F13.2°C 47.6°F8.7°C 74% 6.3 mph NW10.1 kmh NW 6.0 mph9.7 kmh 29.90 in1012.5 mb 0.00 in0.0 mm 0.00 in/hr0.0 mm/hr 0.02 in0.5 mm
05:10 AM 55.9°F13.3°C 47.7°F8.7°C 74% 3.4 mph NNW5.5 kmh NNW 8.0 mph12.9 kmh 29.90 in1012.5 mb 0.00 in0.0 mm 0.00 in/hr0.0 mm/hr 0.02 in0.5 mm
05:00 AM 56.0°F13.3°C 47.8°F8.8°C 74% 2.2 mph NW3.5 kmh NW 6.0 mph9.7 kmh 29.90 in1012.5 mb 0.00 in0.0 mm 0.00 in/hr0.0 mm/hr 0.02 in0.5 mm
04:50 AM 56.2°F13.4°C 47.7°F8.7°C 73% 4.4 mph NW7.1 kmh NW 12.0 mph19.3 kmh 29.91 in1012.9 mb 0.00 in0.0 mm 0.00 in/hr0.0 mm/hr 0.02 in0.5 mm
04:40 AM 56.2°F13.4°C 48.0°F8.9°C 74% 4.7 mph NW7.6 kmh NW 12.0 mph19.3 kmh 29.91 in1012.9 mb 0.00 in0.0 mm 0.00 in/hr0.0 mm/hr 0.02 in0.5 mm
04:30 AM 55.9°F13.3°C 48.8°F9.3°C 77% 10.2 mph NW16.4 kmh NW 20.0 mph32.2 kmh 29.90 in1012.5 mb 0.00 in0.0 mm 0.00 in/hr0.0 mm/hr 0.02 in0.5 mm
04:20 AM 55.7°F13.2°C 49.9°F9.9°C 81% 11.5 mph NW18.5 kmh NW 15.0 mph24.1 kmh 29.91 in1012.9 mb 0.00 in0.0 mm 0.00 in/hr0.0 mm/hr 0.02 in0.5 mm
04:10 AM 55.5°F13.1°C 50.1°F10.1°C 82% 6.0 mph NW9.7 kmh NW 10.0 mph16.1 kmh 29.92 in1013.2 mb 0.00 in0.0 mm 0.00 in/hr0.0 mm/hr 0.02 in0.5 mm
04:00 AM 55.5°F13.1°C 50.1°F10.1°C 82% 15.3 mph NW24.6 kmh NW 21.0 mph33.8 kmh 29.92 in1013.2 mb 0.00 in0.0 mm 0.00 in/hr0.0 mm/hr 0.02 in0.5 mm
03:50 AM 55.1°F12.8°C 50.1°F10.1°C 83% 7.8 mph NW12.6 kmh NW 12.0 mph19.3 kmh 29.93 in1013.5 mb 0.00 in0.0 mm 0.00 in/hr0.0 mm/hr 0.02 in0.5 mm
03:40 AM 54.9°F12.7°C 50.5°F10.3°C 85% 5.2 mph NNW8.4 kmh NNW 9.0 mph14.5 kmh 29.93 in1013.5 mb 0.00 in0.0 mm 0.00 in/hr0.0 mm/hr 0.02 in0.5 mm
03:30 AM 54.8°F12.7°C 50.4°F10.2°C 85% 4.7 mph NNW7.6 kmh NNW 6.0 mph9.7 kmh 29.94 in1013.9 mb 0.00 in0.0 mm 0.00 in/hr0.0 mm/hr 0.02 in0.5 mm
03:20 AM 55.1°F12.8°C 50.4°F10.2°C 84% 6.8 mph NNW10.9 kmh NNW 11.0 mph17.7 kmh 29.94 in1013.9 mb 0.00 in0.0 mm 0.00 in/hr0.0 mm/hr 0.02 in0.5 mm
03:10 AM 55.4°F13.0°C 50.3°F10.2°C 83% 4.4 mph NW7.1 kmh NW 7.0 mph11.3 kmh 29.94 in1013.9 mb 0.00 in0.0 mm 0.00 in/hr0.0 mm/hr 0.02 in0.5 mm
03:00 AM 55.6°F13.1°C 50.8°F10.4°C 84% 6.9 mph NNW11.1 kmh NNW 18.0 mph29.0 kmh 29.94 in1013.9 mb 0.01 in0.3 mm 0.01 in/hr0.3 mm/hr 0.02 in0.5 mm
02:50 AM 55.7°F13.2°C 50.9°F10.5°C 84% 5.4 mph NW8.7 kmh NW 6.0 mph9.7 kmh 29.94 in1013.9 mb 0.00 in0.0 mm 0.00 in/hr0.0 mm/hr 0.02 in0.5 mm
02:40 AM 55.8°F13.2°C 51.0°F10.6°C 84% 6.1 mph NW9.8 kmh NW 13.0 mph20.9 kmh 29.95 in1014.2 mb 0.01 in0.3 mm 0.06 in/hr1.5 mm/hr 0.02 in0.5 mm
02:30 AM 55.9°F13.3°C 50.8°F10.4°C 83% 7.5 mph NW12.1 kmh NW 9.0 mph14.5 kmh 29.95 in1014.2 mb 0.00 in0.0 mm 0.00 in/hr0.0 mm/hr 0.01 in0.3 mm
02:20 AM 55.5°F13.1°C 50.4°F10.2°C 83% 11.1 mph NW17.9 kmh NW 19.0 mph30.6 kmh 29.95 in1014.2 mb 0.00 in0.0 mm 0.00 in/hr0.0 mm/hr 0.01 in0.3 mm
02:10 AM 55.0°F12.8°C 50.3°F10.2°C 84% 10.5 mph NW16.9 kmh NW 18.0 mph29.0 kmh 29.96 in1014.6 mb 0.00 in0.0 mm 0.00 in/hr0.0 mm/hr 0.01 in0.3 mm
02:00 AM 54.7°F12.6°C 49.6°F9.8°C 83% 4.2 mph NW6.8 kmh NW 6.0 mph9.7 kmh 29.96 in1014.6 mb 0.00 in0.0 mm 0.00 in/hr0.0 mm/hr 0.01 in0.3 mm
01:50 AM 54.8°F12.7°C 50.1°F10.1°C 84% 5.8 mph NNW9.3 kmh NNW 11.0 mph17.7 kmh 29.96 in1014.6 mb 0.00 in0.0 mm 0.00 in/hr0.0 mm/hr 0.01 in0.3 mm
01:40 AM 55.1°F12.8°C 50.7°F10.4°C 85% 4.8 mph NW7.7 kmh NW 7.0 mph11.3 kmh 29.96 in1014.6 mb 0.00 in0.0 mm 0.00 in/hr0.0 mm/hr 0.01 in0.3 mm
01:30 AM 55.1°F12.8°C 50.3°F10.2°C 84% 10.9 mph NNW17.5 kmh NNW 18.0 mph29.0 kmh 29.96 in1014.6 mb 0.00 in0.0 mm 0.00 in/hr0.0 mm/hr 0.01 in0.3 mm
01:20 AM 55.1°F12.8°C 50.0°F10.0°C 83% 9.2 mph NNW14.8 kmh NNW 15.0 mph24.1 kmh 29.96 in1014.6 mb 0.01 in0.3 mm 0.06 in/hr1.5 mm/hr 0.01 in0.3 mm
01:10 AM 55.3°F12.9°C 49.9°F9.9°C 82% 11.3 mph NW18.2 kmh NW 18.0 mph29.0 kmh 29.97 in1014.9 mb 0.01 in0.3 mm 0.06 in/hr1.5 mm/hr 0.01 in0.3 mm
01:00 AM 55.1°F12.8°C 50.0°F10.0°C 83% 2.7 mph NW4.3 kmh NW 6.0 mph9.7 kmh 29.97 in1014.9 mb 0.00 in0.0 mm 0.00 in/hr0.0 mm/hr 0.00 in0.0 mm
12:50 AM 55.1°F12.8°C 50.0°F10.0°C 83% 8.1 mph N13.0 kmh N 13.0 mph20.9 kmh 29.97 in1014.9 mb 0.00 in0.0 mm 0.00 in/hr0.0 mm/hr 0.00 in0.0 mm
12:40 AM 55.2°F12.9°C 50.2°F10.1°C 83% 5.5 mph NW8.9 kmh NW 18.0 mph29.0 kmh 29.96 in1014.6 mb 0.00 in0.0 mm 0.00 in/hr0.0 mm/hr 0.00 in0.0 mm
12:30 AM 55.5°F13.1°C 50.1°F10.1°C 82% 3.6 mph NW5.8 kmh NW 9.0 mph14.5 kmh 29.97 in1014.9 mb 0.00 in0.0 mm 0.00 in/hr0.0 mm/hr 0.00 in0.0 mm
12:20 AM 55.3°F12.9°C 49.6°F9.8°C 81% 10.2 mph NW16.4 kmh NW 16.0 mph25.7 kmh 29.96 in1014.6 mb 0.00 in0.0 mm 0.00 in/hr0.0 mm/hr 0.00 in0.0 mm
12:10 AM 55.2°F12.9°C 49.8°F9.9°C 82% 5.8 mph NW9.3 kmh NW 7.0 mph11.3 kmh 29.97 in1014.9 mb 0.00 in0.0 mm 0.00 in/hr0.0 mm/hr 0.00 in0.0 mm
12:00 AM 55.1°F12.8°C 49.4°F9.7°C 81% 8.5 mph NW13.7 kmh NW 15.0 mph24.1 kmh 29.97 in1014.9 mb 0.00 in0.0 mm 0.00 in/hr0.0 mm/hr 0.00 in0.0 mm